Brainerd, Minnesota
Current Conditions -  °F | °C
As of 11:53 PM on Thursday 30 Oct 2014 (Local Time) from KBRD Reporting Station
Clear Clear  
Wind Chill: 14°   Ceiling: Unl
Heat Index: 28°   Visibility: 10mi
Dew Point: 15°   Wind: 22mph
Humidity: 58%   Direction: 360°N
Pressure: 30.43"   Gusts: 29mph
Location:  46.35°N, 94.2°W
Report Text: KBRD 310453Z AUTO 36019G25KT 10SM CLR M02/M09 A3043 RMK AO2 PK WND 01028/0412 SLP322 T10221094
Loading
Personal Weather Stations






























Interactive Weather Map New forecast layout! Learn more

10-Day Weather Forecast

Advertisements
Track Severe Weather on mobile